createdAt,value
2023-01-19T00:01:26.510Z,10.64
2023-01-19T00:03:55.325Z,10.58
2023-01-19T00:06:25.451Z,10.66
2023-01-19T00:08:54.479Z,10.61
2023-01-19T00:11:25.059Z,10.35
2023-01-19T00:13:57.976Z,10.19
2023-01-19T00:16:30.028Z,10.29
2023-01-19T00:19:00.044Z,10.20
2023-01-19T00:21:29.633Z,10.09
2023-01-19T00:23:57.133Z,10.03
2023-01-19T00:26:30.355Z,10.17
2023-01-19T00:28:57.471Z,10.21
2023-01-19T00:31:30.521Z,10.23
2023-01-19T00:33:57.607Z,10.26
2023-01-19T00:36:24.684Z,10.52
2023-01-19T00:38:52.048Z,10.44
2023-01-19T00:41:19.477Z,10.37
2023-01-19T00:43:46.632Z,10.40
2023-01-19T00:46:13.951Z,10.59
2023-01-19T00:48:41.307Z,10.48
2023-01-19T00:51:09.545Z,10.34
2023-01-19T00:53:36.867Z,10.27
2023-01-19T00:56:05.565Z,10.34
2023-01-19T00:58:32.657Z,10.28
2023-01-19T01:01:04.379Z,10.28
2023-01-19T01:03:32.920Z,10.41
2023-01-19T01:06:03.888Z,10.43
2023-01-19T01:08:35.065Z,10.37
2023-01-19T01:11:07.437Z,10.36
2023-01-19T01:13:34.661Z,10.34
2023-01-19T01:16:02.111Z,10.55
2023-01-19T01:18:31.827Z,10.45
2023-01-19T01:21:03.688Z,10.41
2023-01-19T01:23:30.936Z,10.51
2023-01-19T01:25:58.305Z,10.58
2023-01-19T01:28:25.945Z,10.55
2023-01-19T01:30:54.813Z,10.43
2023-01-19T01:33:40.624Z,10.51
2023-01-19T01:36:11.343Z,10.57
2023-01-19T01:38:41.817Z,10.40
2023-01-19T01:41:09.559Z,10.57
2023-01-19T01:43:52.128Z,10.59
2023-01-19T01:46:31.735Z,10.52
2023-01-19T01:49:24.154Z,10.53
2023-01-19T01:51:53.916Z,10.43
2023-01-19T01:54:26.491Z,10.53
2023-01-19T01:57:00.271Z,10.61
2023-01-19T01:59:36.620Z,10.71
2023-01-19T02:02:18.188Z,10.43
2023-01-19T02:05:02.154Z,10.54
2023-01-19T02:08:16.575Z,10.71
2023-01-19T02:10:44.525Z,10.49
2023-01-19T02:13:12.833Z,10.51
2023-01-19T02:15:40.091Z,10.49
2023-01-19T02:18:07.414Z,10.63
2023-01-19T02:20:39.990Z,10.61
2023-01-19T02:23:17.299Z,10.57
2023-01-19T02:25:44.835Z,10.58
2023-01-19T02:28:12.715Z,10.71
2023-01-19T02:30:41.559Z,10.69
2023-01-19T02:33:09.086Z,10.66
2023-01-19T02:35:39.046Z,10.71
2023-01-19T02:38:07.931Z,10.79
2023-01-19T02:40:36.782Z,10.70
2023-01-19T02:43:07.340Z,10.68
2023-01-19T02:45:35.918Z,10.61
2023-01-19T02:48:03.333Z,10.65
2023-01-19T02:50:36.460Z,10.61
2023-01-19T02:53:25.879Z,10.42
2023-01-19T02:56:18.911Z,10.47
2023-01-19T02:59:10.761Z,10.47
2023-01-19T03:01:50.336Z,10.37
2023-01-19T03:04:36.293Z,10.27
2023-01-19T03:07:28.953Z,10.45
2023-01-19T03:10:07.191Z,10.36
2023-01-19T03:12:51.591Z,10.47
2023-01-19T03:15:54.059Z,10.55
2023-01-19T03:18:26.661Z,10.77
2023-01-19T03:21:03.873Z,10.71
2023-01-19T03:23:37.077Z,10.73
2023-01-19T03:26:07.124Z,10.85
2023-01-19T03:28:37.676Z,10.79
2023-01-19T03:31:20.947Z,10.78
2023-01-19T03:34:00.763Z,10.60
2023-01-19T03:36:36.134Z,10.66
2023-01-19T03:39:06.983Z,10.64
2023-01-19T03:41:37.957Z,10.71
2023-01-19T03:44:06.233Z,10.69
2023-01-19T03:46:33.896Z,10.79
2023-01-19T03:49:01.169Z,10.72
2023-01-19T03:51:39.120Z,10.75
2023-01-19T03:54:07.445Z,10.84
2023-01-19T03:56:34.888Z,10.96
2023-01-19T03:59:04.176Z,10.98
2023-01-19T04:01:40.966Z,11.00
2023-01-19T04:04:14.187Z,11.02
2023-01-19T04:06:42.312Z,14.74
2023-01-19T04:09:20.255Z,14.25
2023-01-19T04:11:50.519Z,14.28
2023-01-19T04:14:20.605Z,15.69
2023-01-19T04:16:47.843Z,15.13
2023-01-19T04:19:15.105Z,14.15
2023-01-19T04:21:42.411Z,13.83
2023-01-19T04:24:16.104Z,13.54
2023-01-19T04:26:49.350Z,13.68
2023-01-19T04:29:18.921Z,13.79
2023-01-19T04:31:50.653Z,12.13
2023-01-19T04:34:54.483Z,11.56
2023-01-19T04:37:23.686Z,11.40
2023-01-19T04:39:50.925Z,11.21
2023-01-19T04:42:18.536Z,11.16
2023-01-19T04:44:52.120Z,11.21
2023-01-19T04:47:25.026Z,11.07
2023-01-19T04:49:52.929Z,11.41
2023-01-19T04:52:25.023Z,11.08
2023-01-19T04:54:54.869Z,11.26
2023-01-19T04:57:22.643Z,11.27
2023-01-19T04:59:50.625Z,11.39
2023-01-19T05:02:19.506Z,11.23
2023-01-19T05:04:49.991Z,11.15
2023-01-19T05:07:17.909Z,11.20
2023-01-19T05:09:50.048Z,11.07
2023-01-19T05:12:17.644Z,11.00
2023-01-19T05:14:49.534Z,10.92
2023-01-19T05:17:16.807Z,10.84
2023-01-19T05:19:49.489Z,10.83
2023-01-19T05:22:16.814Z,10.62
2023-01-19T05:24:50.366Z,10.54
2023-01-19T05:27:20.752Z,10.68
2023-01-19T05:29:50.154Z,10.50
2023-01-19T05:32:20.788Z,10.49
2023-01-19T05:34:52.347Z,10.40
2023-01-19T05:37:23.932Z,10.57
2023-01-19T05:39:54.025Z,10.48
2023-01-19T05:42:23.326Z,10.54
2023-01-19T05:48:02.761Z,10.76
2023-01-19T05:50:32.877Z,10.66
2023-01-19T05:53:01.796Z,10.70
2023-01-19T05:55:30.240Z,10.62
2023-01-19T05:57:57.616Z,10.86
2023-01-19T06:00:25.083Z,10.70
2023-01-19T06:02:55.740Z,10.70
2023-01-19T06:05:24.056Z,10.67
2023-01-19T06:07:52.223Z,10.85
2023-01-19T06:10:25.284Z,10.73
2023-01-19T06:12:55.620Z,10.60
2023-01-19T06:15:24.020Z,10.54
2023-01-19T06:17:53.756Z,10.78
2023-01-19T06:20:23.392Z,10.74
2023-01-19T06:22:51.497Z,10.60
2023-01-19T06:25:22.267Z,10.61
2023-01-19T06:27:56.634Z,10.73
2023-01-19T06:30:24.145Z,10.55
2023-01-19T06:32:55.779Z,10.54
2023-01-19T06:35:23.162Z,10.57
2023-01-19T06:37:50.618Z,10.69
2023-01-19T06:40:18.285Z,10.73
2023-01-19T06:42:50.687Z,10.64
2023-01-19T06:45:23.396Z,10.74
2023-01-19T06:47:51.203Z,10.86
2023-01-19T06:50:20.432Z,10.84
2023-01-19T06:52:54.840Z,10.72
2023-01-19T06:55:25.333Z,10.83
2023-01-19T06:58:00.239Z,10.94
2023-01-19T07:00:29.998Z,10.89
2023-01-19T07:03:00.924Z,10.96
2023-01-19T07:05:28.611Z,10.93
2023-01-19T07:07:57.139Z,11.03
2023-01-19T07:10:24.785Z,11.02
2023-01-19T07:12:52.336Z,11.28
2023-01-19T07:15:20.256Z,11.46
2023-01-19T07:17:47.707Z,11.72
2023-01-19T07:20:15.120Z,11.67
2023-01-19T07:22:45.823Z,11.42
2023-01-19T07:25:16.774Z,11.90
2023-01-19T07:27:44.264Z,12.12
2023-01-19T07:30:12.373Z,12.71
2023-01-19T07:32:47.886Z,13.03
2023-01-19T07:35:22.469Z,13.17
2023-01-19T07:37:54.660Z,13.55
2023-01-19T07:40:24.488Z,13.62
2023-01-19T07:42:56.469Z,13.78
2023-01-19T07:45:23.978Z,13.92
2023-01-19T07:47:52.388Z,14.18
2023-01-19T07:50:20.538Z,14.27
2023-01-19T07:52:59.690Z,14.33
2023-01-19T07:55:27.775Z,14.24
2023-01-19T07:58:07.568Z,13.93
2023-01-19T08:00:40.855Z,13.66
2023-01-19T08:03:11.138Z,13.66
2023-01-19T08:05:42.012Z,13.53
2023-01-19T08:08:12.303Z,13.98
2023-01-19T08:10:41.636Z,14.08
2023-01-19T08:13:09.135Z,14.73
2023-01-19T08:15:36.595Z,15.28
2023-01-19T08:18:04.618Z,15.55
2023-01-19T08:20:32.568Z,15.83
2023-01-19T08:23:02.193Z,15.54
2023-01-19T08:25:43.339Z,15.53
2023-01-19T08:28:15.688Z,16.05
2023-01-19T08:30:45.809Z,15.64
2023-01-19T08:33:13.699Z,15.73
2023-01-19T08:35:43.443Z,15.78
2023-01-19T08:41:03.239Z,16.08
2023-01-19T08:43:35.339Z,16.12
2023-01-19T08:46:08.899Z,16.12
2023-01-19T08:48:37.329Z,16.13
2023-01-19T08:51:15.141Z,16.14
2023-01-19T08:53:49.721Z,15.93
2023-01-19T08:56:18.543Z,15.83
2023-01-19T08:59:08.440Z,15.95
2023-01-19T09:01:40.709Z,15.78
2023-01-19T09:04:19.492Z,15.46
2023-01-19T09:06:49.478Z,15.30
2023-01-19T09:09:16.945Z,15.68
2023-01-19T09:11:50.043Z,15.40
2023-01-19T09:14:22.093Z,15.17
2023-01-19T09:16:52.516Z,15.21
2023-01-19T09:19:20.099Z,15.33
2023-01-19T09:21:47.667Z,15.11
2023-01-19T09:24:15.047Z,15.32
2023-01-19T09:26:44.497Z,15.25
2023-01-19T09:29:11.883Z,15.47
2023-01-19T09:31:39.354Z,15.52
2023-01-19T09:34:06.851Z,15.63
2023-01-19T09:36:34.759Z,15.40
2023-01-19T09:39:02.104Z,15.64
2023-01-19T09:41:31.139Z,15.37
2023-01-19T09:44:00.341Z,15.28
2023-01-19T09:46:46.655Z,15.21
2023-01-19T09:49:31.444Z,15.58
2023-01-19T09:52:00.850Z,15.56
2023-01-19T09:54:34.145Z,15.52
2023-01-19T09:57:02.340Z,15.50
2023-01-19T09:59:31.815Z,15.88
2023-01-19T10:02:31.767Z,15.75
2023-01-19T10:05:00.417Z,15.84
2023-01-19T10:07:56.780Z,15.96
2023-01-19T10:10:35.632Z,16.13
2023-01-19T10:13:30.109Z,16.15
2023-01-19T10:16:16.938Z,16.25
2023-01-19T10:18:50.385Z,16.46
2023-01-19T10:21:39.540Z,16.47
2023-01-19T10:24:19.560Z,16.46
2023-01-19T10:26:52.998Z,16.56
2023-01-19T10:29:35.292Z,16.79
2023-01-19T10:32:13.931Z,17.49
2023-01-19T10:34:43.049Z,17.15
2023-01-19T10:37:18.156Z,17.14
2023-01-19T10:39:47.373Z,17.20
2023-01-19T10:42:16.369Z,17.13
2023-01-19T10:44:44.621Z,17.08
2023-01-19T10:47:17.539Z,17.09
2023-01-19T10:49:45.964Z,17.55
2023-01-19T10:52:38.648Z,17.45
2023-01-19T10:55:20.321Z,17.41
2023-01-19T10:57:50.444Z,17.63
2023-01-19T11:00:47.437Z,17.63
2023-01-19T11:03:33.458Z,17.75
2023-01-19T11:06:30.461Z,17.88
2023-01-19T11:09:20.052Z,18.11
2023-01-19T11:11:52.950Z,18.08
2023-01-19T11:14:23.438Z,18.27
2023-01-19T11:16:57.829Z,18.14
2023-01-19T11:19:32.241Z,18.23
2023-01-19T11:22:21.544Z,18.05
2023-01-19T11:24:50.233Z,17.96
2023-01-19T11:27:20.823Z,18.12
2023-01-19T11:30:08.003Z,18.19
2023-01-19T11:32:43.343Z,18.12
2023-01-19T11:35:33.765Z,18.13
2023-01-19T11:38:13.446Z,18.50
2023-01-19T11:40:46.624Z,18.81
2023-01-19T11:43:15.945Z,19.15
2023-01-19T11:45:45.852Z,18.97
2023-01-19T11:48:37.746Z,18.98
2023-01-19T11:51:12.943Z,18.84
2023-01-19T11:53:43.476Z,18.61
2023-01-19T11:56:17.494Z,18.81
2023-01-19T11:58:45.481Z,18.62
2023-01-19T12:01:21.943Z,18.42
2023-01-19T12:04:01.810Z,17.90
2023-01-19T12:06:39.867Z,17.56
2023-01-19T12:09:10.364Z,17.62
2023-01-19T12:11:52.478Z,17.45
2023-01-19T12:14:26.579Z,17.42
2023-01-19T12:16:59.115Z,17.49
2023-01-19T12:19:44.099Z,17.14
2023-01-19T12:22:15.700Z,16.67
2023-01-19T12:24:52.589Z,16.43
2023-01-19T12:27:45.454Z,16.09
2023-01-19T12:30:25.732Z,16.22
2023-01-19T12:33:28.262Z,15.69
2023-01-19T12:35:59.040Z,15.63
2023-01-19T12:38:47.510Z,15.83
2023-01-19T12:41:29.214Z,15.74
2023-01-19T12:44:11.918Z,15.57
2023-01-19T12:46:45.860Z,15.43
2023-01-19T12:49:42.382Z,15.35
2023-01-19T12:52:29.555Z,15.06
2023-01-19T12:54:56.933Z,14.93
2023-01-19T12:57:27.386Z,14.87
2023-01-19T13:00:24.888Z,15.19
2023-01-19T13:03:20.695Z,15.09
2023-01-19T13:05:55.857Z,14.97
2023-01-19T13:08:26.318Z,14.82
2023-01-19T13:10:53.887Z,14.97
2023-01-19T13:13:24.214Z,14.75
2023-01-19T13:15:54.783Z,14.65
2023-01-19T13:18:29.853Z,14.98
2023-01-19T13:21:00.161Z,15.12
2023-01-19T13:23:48.759Z,14.97
2023-01-19T13:26:19.420Z,14.96
2023-01-19T13:28:51.526Z,15.09
2023-01-19T13:31:19.984Z,15.27
2023-01-19T13:33:59.913Z,15.24
2023-01-19T13:36:41.440Z,15.17
2023-01-19T13:39:15.470Z,15.28
2023-01-19T13:41:44.681Z,15.16
2023-01-19T13:44:28.607Z,15.04
2023-01-19T13:46:57.010Z,14.91
2023-01-19T13:49:24.317Z,15.23
2023-01-19T13:52:07.935Z,15.08
2023-01-19T13:54:35.291Z,14.96
2023-01-19T13:57:03.251Z,14.81
2023-01-19T13:59:30.782Z,15.11
2023-01-19T14:02:09.231Z,14.96
2023-01-19T14:04:37.500Z,14.72
2023-01-19T14:07:18.514Z,14.75
2023-01-19T14:09:45.965Z,14.83
2023-01-19T14:12:17.206Z,14.61
2023-01-19T14:14:45.882Z,14.49
2023-01-19T14:17:28.814Z,14.40
2023-01-19T14:19:58.257Z,14.61
2023-01-19T14:22:43.993Z,14.43
2023-01-19T14:25:30.572Z,14.30
2023-01-19T14:28:26.111Z,14.22
2023-01-19T14:30:55.679Z,14.32
2023-01-19T14:33:43.010Z,14.14
2023-01-19T14:36:14.709Z,14.22
2023-01-19T14:38:45.910Z,14.06
2023-01-19T14:41:24.968Z,14.15
2023-01-19T14:43:52.795Z,14.11
2023-01-19T14:46:20.967Z,14.05
2023-01-19T14:48:50.414Z,15.86
2023-01-19T14:51:24.088Z,16.59
2023-01-19T14:53:58.730Z,16.91
2023-01-19T14:56:32.275Z,16.81
2023-01-19T14:59:01.772Z,16.78
2023-01-19T15:01:29.312Z,16.67
2023-01-19T15:03:57.422Z,16.65
2023-01-19T15:06:28.090Z,16.36
2023-01-19T15:09:05.780Z,16.44
2023-01-19T15:11:35.151Z,15.20
2023-01-19T15:14:02.986Z,14.58
2023-01-19T15:16:34.376Z,14.23
2023-01-19T15:19:01.806Z,14.21
2023-01-19T15:21:31.141Z,14.16
2023-01-19T15:23:58.713Z,13.63
2023-01-19T15:26:27.631Z,13.32
2023-01-19T15:28:58.714Z,13.50
2023-01-19T15:31:30.749Z,13.35
2023-01-19T15:33:58.224Z,13.11
2023-01-19T15:36:25.811Z,13.04
2023-01-19T15:38:57.889Z,12.93
2023-01-19T15:41:28.294Z,12.98
2023-01-19T15:43:56.303Z,12.66
2023-01-19T15:46:28.105Z,12.88
2023-01-19T15:48:57.115Z,12.72
2023-01-19T15:51:26.061Z,12.71
2023-01-19T15:54:02.596Z,12.67
2023-01-19T15:56:31.672Z,12.46
2023-01-19T15:58:59.329Z,12.58
2023-01-19T16:01:29.320Z,12.82
2023-01-19T16:04:03.209Z,12.39
2023-01-19T16:06:31.721Z,12.27
2023-01-19T16:08:59.457Z,12.18
2023-01-19T16:11:32.870Z,12.30
2023-01-19T16:14:00.826Z,12.08
2023-01-19T16:16:28.577Z,11.90
2023-01-19T16:18:56.335Z,12.08
2023-01-19T16:21:25.473Z,12.09
2023-01-19T16:23:53.501Z,12.00
2023-01-19T16:26:33.562Z,11.95
2023-01-19T16:29:03.959Z,11.75
2023-01-19T16:31:31.209Z,11.83
2023-01-19T16:33:58.524Z,11.83
2023-01-19T16:36:28.681Z,11.73
2023-01-19T16:39:00.117Z,11.82
2023-01-19T16:41:29.249Z,11.70
2023-01-19T16:43:58.005Z,11.99
2023-01-19T16:46:30.488Z,11.69
2023-01-19T16:49:07.255Z,11.79
2023-01-19T16:51:38.131Z,11.66
2023-01-19T16:54:08.097Z,11.58
2023-01-19T16:56:35.428Z,11.55
2023-01-19T16:59:02.863Z,11.66
2023-01-19T17:01:30.196Z,11.49
2023-01-19T17:04:01.738Z,11.34
2023-01-19T17:06:28.809Z,11.41
2023-01-19T17:08:58.670Z,11.54
2023-01-19T17:11:30.615Z,11.50
2023-01-19T17:14:04.001Z,11.52
2023-01-19T17:16:32.971Z,11.25
2023-01-19T17:19:03.062Z,11.24
2023-01-19T17:21:30.404Z,11.29
2023-01-19T17:24:00.725Z,11.27
2023-01-19T17:26:29.010Z,11.23
2023-01-19T17:29:11.616Z,11.19
2023-01-19T17:31:38.964Z,11.40
2023-01-19T17:34:08.720Z,11.26
2023-01-19T17:36:38.972Z,11.10
2023-01-19T17:39:11.897Z,11.22
2023-01-19T17:41:39.551Z,11.22
2023-01-19T17:44:07.431Z,11.11
2023-01-19T17:46:37.394Z,11.06
2023-01-19T17:49:07.024Z,10.96
2023-01-19T17:51:39.132Z,11.03
2023-01-19T17:54:06.457Z,11.07
2023-01-19T17:56:40.865Z,11.09
2023-01-19T17:59:08.407Z,11.00
2023-01-19T18:01:40.322Z,11.26
2023-01-19T18:04:10.883Z,11.05
2023-01-19T18:06:38.534Z,11.06
2023-01-19T18:09:06.192Z,11.08
2023-01-19T18:11:41.981Z,11.06
2023-01-19T18:14:13.021Z,11.01
2023-01-19T18:16:42.460Z,10.89
2023-01-19T18:22:02.617Z,10.82
2023-01-19T18:24:32.745Z,10.85
2023-01-19T18:27:09.213Z,10.96
2023-01-19T18:29:42.976Z,10.95
2023-01-19T18:32:10.763Z,10.94
2023-01-19T18:34:37.932Z,10.95
2023-01-19T18:37:05.237Z,10.91
2023-01-19T18:39:32.779Z,10.81
2023-01-19T18:42:00.118Z,10.82
2023-01-19T18:44:27.469Z,10.95
2023-01-19T18:46:54.930Z,10.85
2023-01-19T18:49:22.663Z,10.73
2023-01-19T18:51:52.981Z,10.95
2023-01-19T18:54:25.084Z,10.90
2023-01-19T18:57:04.347Z,10.70
2023-01-19T18:59:31.724Z,10.73
2023-01-19T19:01:59.450Z,10.92
2023-01-19T19:04:41.958Z,10.72
2023-01-19T19:07:14.543Z,10.65
2023-01-19T19:09:41.787Z,10.60
2023-01-19T19:12:12.375Z,10.59
2023-01-19T19:14:39.736Z,10.53
2023-01-19T19:17:06.995Z,10.58
2023-01-19T19:19:38.830Z,10.53
2023-01-19T19:22:10.232Z,10.64
2023-01-19T19:24:42.824Z,10.49
2023-01-19T19:27:10.306Z,10.46
2023-01-19T19:29:42.952Z,10.58
2023-01-19T19:32:14.978Z,10.53
2023-01-19T19:34:52.276Z,10.38
2023-01-19T19:37:20.222Z,10.43
2023-01-19T19:39:48.800Z,10.42
2023-01-19T19:42:16.074Z,10.50
2023-01-19T19:44:50.637Z,10.42
2023-01-19T19:47:17.852Z,10.47
2023-01-19T19:49:45.865Z,10.59
2023-01-19T19:52:16.186Z,10.43
2023-01-19T19:54:46.013Z,10.28
2023-01-19T19:57:24.192Z,10.41
2023-01-19T19:59:51.636Z,10.36
2023-01-19T20:02:27.742Z,10.44
2023-01-19T20:04:55.082Z,10.35
2023-01-19T20:07:24.568Z,10.23
2023-01-19T20:09:57.653Z,10.19
2023-01-19T20:12:39.301Z,10.18
2023-01-19T20:15:07.141Z,10.17
2023-01-19T20:17:36.309Z,10.15
2023-01-19T20:20:15.918Z,10.03
2023-01-19T20:22:43.188Z,9.94
2023-01-19T20:25:10.524Z,9.96
2023-01-19T20:27:37.715Z,9.99
2023-01-19T20:30:05.730Z,9.94
2023-01-19T20:32:33.857Z,9.95
2023-01-19T20:35:03.291Z,9.82
2023-01-19T20:37:31.549Z,9.74
2023-01-19T20:39:58.978Z,9.73
2023-01-19T20:42:45.751Z,9.80
2023-01-19T20:45:21.931Z,9.94
2023-01-19T20:47:49.163Z,9.83
2023-01-19T20:50:16.797Z,9.81
2023-01-19T20:52:44.351Z,9.80
2023-01-19T20:55:13.433Z,9.83
2023-01-19T20:57:43.139Z,9.44
2023-01-19T21:00:13.030Z,9.44
2023-01-19T21:02:40.318Z,9.57
2023-01-19T21:05:11.276Z,9.26
2023-01-19T21:07:39.824Z,9.39
2023-01-19T21:10:07.153Z,9.46
2023-01-19T21:12:44.790Z,9.38
2023-01-19T21:15:15.128Z,9.47
2023-01-19T21:17:47.232Z,9.57
2023-01-19T21:20:14.971Z,9.52
2023-01-19T21:22:48.029Z,9.72
2023-01-19T21:25:18.857Z,9.52
2023-01-19T21:27:49.885Z,9.53
2023-01-19T21:30:19.943Z,9.42
2023-01-19T21:32:47.302Z,9.38
2023-01-19T21:35:17.489Z,9.44
2023-01-19T21:37:44.706Z,9.17
2023-01-19T21:40:12.709Z,9.27
2023-01-19T21:42:42.649Z,9.36
2023-01-19T21:45:15.321Z,9.56
2023-01-19T21:47:43.643Z,9.71
2023-01-19T21:50:16.458Z,9.38
2023-01-19T21:52:43.722Z,9.31
2023-01-19T21:55:11.194Z,9.42
2023-01-19T21:57:38.745Z,9.45
2023-01-19T22:00:06.804Z,9.40
2023-01-19T22:02:38.959Z,9.48
2023-01-19T22:05:11.904Z,9.53
2023-01-19T22:10:30.763Z,9.17
2023-01-19T22:12:59.885Z,9.22
2023-01-19T22:15:32.398Z,9.23
2023-01-19T22:18:04.864Z,9.18
2023-01-19T22:20:33.807Z,9.28
2023-01-19T22:23:02.380Z,9.37
2023-01-19T22:25:33.375Z,9.44
2023-01-19T22:28:02.018Z,9.22
2023-01-19T22:30:30.759Z,9.31
2023-01-19T22:32:58.094Z,9.10
2023-01-19T22:35:25.324Z,9.07
2023-01-19T22:37:52.485Z,9.00
2023-01-19T22:40:19.858Z,8.88
2023-01-19T22:42:48.223Z,9.22
2023-01-19T22:45:16.084Z,8.92
2023-01-19T22:47:50.467Z,8.73
2023-01-19T22:50:17.866Z,8.84
2023-01-19T22:52:47.546Z,9.07
2023-01-19T22:55:17.722Z,9.02
2023-01-19T22:57:49.254Z,8.83
2023-01-19T23:00:18.684Z,8.95
2023-01-19T23:02:48.386Z,9.02
2023-01-19T23:05:17.418Z,9.01
2023-01-19T23:07:44.772Z,9.02
2023-01-19T23:10:11.998Z,8.74
2023-01-19T23:12:39.141Z,8.90
2023-01-19T23:15:09.039Z,8.85
2023-01-19T23:17:36.311Z,8.82
2023-01-19T23:20:04.778Z,8.90
2023-01-19T23:22:32.171Z,9.05
2023-01-19T23:24:59.423Z,8.98
2023-01-19T23:27:43.249Z,8.78
2023-01-19T23:30:11.083Z,8.90
2023-01-19T23:32:49.738Z,8.98
2023-01-19T23:35:17.017Z,8.74
2023-01-19T23:37:46.395Z,8.77
2023-01-19T23:40:16.716Z,8.66
2023-01-19T23:42:46.156Z,9.03
2023-01-19T23:45:15.722Z,8.78
2023-01-19T23:47:43.009Z,8.79
2023-01-19T23:50:15.465Z,8.78
2023-01-19T23:52:42.651Z,8.86
2023-01-19T23:55:09.885Z,8.62
2023-01-19T23:57:39.249Z,8.65
